Time;durP1;ratioP1;P1;durP2;ratioP2;P2;SDS_P1;SDS_P2;PMS_P1;PMS_P2;Temp;Humidity;BMP_temperature;BMP_pressure;BME280_temperature;BME280_humidity;BME280_pressure;Samples;Min_cycle;Max_cycle;Signal;HPM_P1;HPM_P2
2022/08/06 00:01:51;;;;;;;11.80;9.35;;;;;;;22.77;70.80;100528.78;1739738;80;21120;-46
2022/08/06 00:04:17;;;;;;;11.10;9.00;;;;;;;22.76;70.70;100524.95;1743307;81;21059;-46
2022/08/06 00:06:44;;;;;;;10.10;8.93;;;;;;;22.71;70.60;100521.55;1739027;81;21100;-57
2022/08/06 00:09:11;;;;;;;10.68;8.83;;;;;;;22.67;70.54;100525.64;1702317;82;21059;-58
2022/08/06 00:11:39;;;;;;;11.73;8.68;;;;;;;22.62;70.44;100518.71;1696481;82;21080;-58
2022/08/06 00:14:06;;;;;;;9.78;8.75;;;;;;;22.60;70.38;100521.59;1742530;81;21062;-58
2022/08/06 00:16:33;;;;;;;11.00;9.18;;;;;;;22.61;70.60;100530.45;1729574;81;21178;-58
2022/08/06 00:19:00;;;;;;;11.85;9.38;;;;;;;22.60;70.60;100530.16;1678615;84;21122;-58
2022/08/06 00:21:26;;;;;;;10.63;9.05;;;;;;;22.56;70.65;100527.54;1733257;81;21004;-58
2022/08/06 00:23:52;;;;;;;13.53;9.50;;;;;;;22.52;70.71;100535.16;1690440;84;21132;-58
2022/08/06 00:26:19;;;;;;;11.03;8.18;;;;;;;22.49;70.69;100538.75;1701039;82;21491;-58
2022/08/06 00:28:45;;;;;;;11.48;8.35;;;;;;;22.48;70.64;100543.78;1726851;82;21004;-58
2022/08/06 00:31:12;;;;;;;10.38;8.58;;;;;;;22.47;70.55;100536.27;1741769;81;21067;-58
2022/08/06 00:33:41;;;;;;;11.65;9.35;;;;;;;22.45;70.60;100531.62;1737441;82;21138;-58
2022/08/06 00:36:09;;;;;;;10.03;8.68;;;;;;;22.43;70.64;100537.70;1737260;80;21626;-58
2022/08/06 00:38:35;;;;;;;13.03;9.20;;;;;;;22.36;70.79;100536.31;1743120;80;21054;-58
2022/08/06 00:41:03;;;;;;;10.15;8.78;;;;;;;22.30;70.93;100535.75;1722709;81;21621;-57
2022/08/06 00:43:29;;;;;;;13.13;9.15;;;;;;;22.27;70.99;100537.45;1750050;81;21086;-58
2022/08/06 00:45:56;;;;;;;11.50;8.58;;;;;;;22.26;70.96;100533.13;1720505;81;21016;-58
2022/08/06 00:48:22;;;;;;;11.53;8.28;;;;;;;22.28;70.91;100537.80;1680503;83;22583;-58
2022/08/06 00:50:49;;;;;;;11.97;9.58;;;;;;;22.34;70.95;100536.18;1728388;81;22329;-58
2022/08/06 00:53:16;;;;;;;13.83;9.03;;;;;;;22.36;70.76;100542.16;1720377;81;21070;-58
2022/08/06 00:55:42;;;;;;;10.15;8.88;;;;;;;22.31;70.83;100536.56;1691388;82;21063;-58
2022/08/06 00:58:09;;;;;;;12.47;10.53;;;;;;;22.33;70.84;100550.10;1685484;83;21223;-58
2022/08/06 01:00:35;;;;;;;10.95;8.88;;;;;;;22.30;70.75;100546.99;1714048;81;21218;-58
2022/08/06 01:03:02;;;;;;;10.08;8.63;;;;;;;22.31;70.60;100545.95;1727754;81;21031;-58
2022/08/06 01:05:28;;;;;;;9.85;8.45;;;;;;;22.31;70.31;100549.97;1733738;81;21036;-58
2022/08/06 01:07:55;;;;;;;13.85;8.88;;;;;;;22.25;70.39;100548.36;1730872;82;21058;-58
2022/08/06 01:10:26;;;;;;;11.10;8.68;;;;;;;22.26;70.61;100551.89;1728501;81;21011;-58
2022/08/06 01:12:50;;;;;;;11.25;9.00;;;;;;;22.24;70.81;100552.08;1732966;80;22164;-58
2022/08/06 01:15:16;;;;;;;12.23;9.55;;;;;;;22.25;70.79;100547.54;1741070;81;21526;-58
2022/08/06 01:18:00;;;;;;;11.83;9.10;;;;;;;22.22;70.77;100551.95;1713780;82;21610;-58
2022/08/06 01:21:17;;;;;;;11.45;8.73;;;;;;;22.20;70.69;100549.45;1739161;81;21546;-59
2022/08/06 01:24:30;;;;;;;13.43;8.78;;;;;;;22.22;70.53;100555.45;1744895;81;21514;-58
2022/08/06 01:27:36;;;;;;;12.40;9.18;;;;;;;22.21;70.57;100555.67;1708622;81;21127;-59
2022/08/06 01:30:08;;;;;;;11.70;9.23;;;;;;;22.21;70.50;100548.97;1716106;81;21059;-59
2022/08/06 01:32:40;;;;;;;11.00;9.83;;;;;;;22.18;70.50;100541.31;1705383;83;21182;-59
2022/08/06 01:35:11;;;;;;;11.28;9.45;;;;;;;22.12;70.72;100548.27;1712240;82;21059;-57
2022/08/06 01:38:17;;;;;;;11.88;8.95;;;;;;;22.11;70.66;100548.45;1728882;80;21011;-58
2022/08/06 01:40:44;;;;;;;11.28;9.05;;;;;;;22.12;70.43;100547.44;1734505;81;21126;-58
2022/08/06 01:43:13;;;;;;;13.10;9.18;;;;;;;22.10;70.29;100548.16;1734583;80;21035;-58
2022/08/06 01:45:39;;;;;;;11.28;9.20;;;;;;;22.06;70.20;100547.20;1707973;82;21049;-57
2022/08/06 01:48:10;;;;;;;13.22;9.48;;;;;;;22.01;70.29;100549.64;1741026;81;21038;-57
2022/08/06 01:50:40;;;;;;;14.07;8.83;;;;;;;21.97;70.23;100550.20;1745804;80;21101;-46
2022/08/06 01:53:08;;;;;;;21.27;9.20;;;;;;;21.92;70.23;100548.10;1688321;83;21128;-45
2022/08/06 01:55:40;;;;;;;10.95;8.78;;;;;;;21.88;70.22;100554.36;1738326;80;21118;-44
2022/08/06 01:58:10;;;;;;;11.28;8.03;;;;;;;21.89;70.11;100548.52;1745927;81;21535;-45
2022/08/06 02:00:41;;;;;;;10.53;8.25;;;;;;;21.90;69.90;100547.48;1739683;81;21058;-57
2022/08/06 02:03:16;;;;;;;12.68;8.33;;;;;;;21.88;69.88;100550.86;1744647;80;20995;-58
2022/08/06 02:05:43;;;;;;;11.15;8.95;;;;;;;21.86;69.70;100551.58;1739938;81;26880;-58
2022/08/06 02:08:10;;;;;;;12.40;8.63;;;;;;;21.80;69.81;100551.00;1735690;80;21172;-58
2022/08/06 02:10:38;;;;;;;11.35;8.45;;;;;;;21.75;69.87;100561.45;1738018;81;21118;-58
2022/08/06 02:13:05;;;;;;;10.53;8.00;;;;;;;21.70;69.77;100553.50;1745382;81;21137;-59
2022/08/06 02:15:32;;;;;;;9.55;7.90;;;;;;;21.69;69.65;100555.03;1749130;80;21026;-58
2022/08/06 02:18:00;;;;;;;11.97;7.95;;;;;;;21.67;69.73;100557.89;1748006;80;21197;-57
2022/08/06 02:20:33;;;;;;;9.75;7.97;;;;;;;21.65;69.72;100558.61;1747439;81;21147;-58
2022/08/06 02:23:01;;;;;;;12.23;9.13;;;;;;;21.60;69.79;100559.69;1746389;81;21055;-57
2022/08/06 02:25:28;;;;;;;10.55;8.88;;;;;;;21.55;69.90;100561.27;1749038;80;21063;-58
2022/08/06 02:27:56;;;;;;;13.85;8.43;;;;;;;21.50;69.95;100560.00;1708731;82;21512;-58
2022/08/06 02:30:23;;;;;;;8.88;7.58;;;;;;;21.49;69.97;100571.72;1704486;82;21774;-58
2022/08/06 02:32:50;;;;;;;11.57;7.42;;;;;;;21.49;69.84;100566.88;1707899;82;21074;-58
2022/08/06 02:35:16;;;;;;;15.25;8.30;;;;;;;21.49;69.87;100566.88;1698328;82;21067;-59
2022/08/06 02:37:51;;;;;;;12.05;8.53;;;;;;;21.47;70.04;100568.41;1666530;84;21090;-59
2022/08/06 02:40:36;;;;;;;9.43;7.67;;;;;;;21.44;70.21;100575.96;1693816;82;21507;-59
2022/08/06 02:43:10;;;;;;;10.03;8.10;;;;;;;21.43;70.41;100573.77;1701540;83;21154;-59
2022/08/06 02:48:19;;;;;;;8.10;6.95;;;;;;;21.47;70.51;100576.95;1788875;78;22515;-57
2022/08/06 02:50:47;;;;;;;9.05;7.10;;;;;;;21.54;70.07;100581.05;1751053;80;21072;-58
2022/08/06 02:53:19;;;;;;;10.03;7.87;;;;;;;21.59;69.94;100583.98;1751387;81;21172;-58
2022/08/06 02:55:49;;;;;;;9.73;7.67;;;;;;;21.62;69.77;100584.42;1745077;80;21281;-58
2022/08/06 02:58:35;;;;;;;11.50;7.72;;;;;;;21.64;69.47;100581.55;1751316;81;21541;-59
2022/08/06 03:01:07;;;;;;;9.13;7.87;;;;;;;21.64;69.25;100585.58;1744593;81;21541;-58
2022/08/06 03:03:33;;;;;;;9.53;7.37;;;;;;;21.62;69.03;100580.41;1728236;81;21047;-58
2022/08/06 03:06:00;;;;;;;8.83;7.30;;;;;;;21.61;68.94;100589.44;1749926;81;21216;-58
2022/08/06 03:08:27;;;;;;;10.43;7.45;;;;;;;21.64;68.90;100593.09;1750962;81;21038;-59
2022/08/06 03:10:54;;;;;;;11.12;7.55;;;;;;;21.66;68.82;100596.39;1748420;80;21022;-58
2022/08/06 03:13:21;;;;;;;9.53;7.47;;;;;;;21.71;68.72;100597.17;1748120;81;21046;-57
2022/08/06 03:15:48;;;;;;;10.70;7.85;;;;;;;21.70;68.68;100593.67;1753358;80;22308;-58
2022/08/06 03:18:16;;;;;;;10.00;7.83;;;;;;;21.68;68.79;100598.36;1746626;81;21218;-58
2022/08/06 03:20:42;;;;;;;10.05;7.78;;;;;;;21.68;68.83;100603.72;1751790;80;21062;-59
2022/08/06 03:23:09;;;;;;;10.00;8.00;;;;;;;21.71;68.63;100599.33;1751187;81;21089;-59
2022/08/06 03:25:37;;;;;;;9.03;7.92;;;;;;;21.77;68.20;100606.28;1751681;80;21121;-58
2022/08/06 03:28:04;;;;;;;9.55;7.65;;;;;;;21.79;68.23;100606.42;1748142;81;21114;-58
2022/08/06 03:30:30;;;;;;;10.98;8.58;;;;;;;21.76;68.28;100610.81;1754870;80;21083;-58
2022/08/06 03:32:57;;;;;;;10.85;9.40;;;;;;;21.75;68.36;100612.34;1756092;80;21069;-58
2022/08/06 03:35:24;;;;;;;10.30;7.58;;;;;;;21.74;68.36;100606.16;1759878;80;21112;-58
2022/08/06 03:37:52;;;;;;;9.23;7.80;;;;;;;21.76;68.21;100610.00;1756453;80;21121;-58
2022/08/06 03:40:18;;;;;;;9.93;8.08;;;;;;;21.80;68.18;100611.26;1766524;80;21002;-59
2022/08/06 03:42:45;;;;;;;11.33;8.65;;;;;;;21.82;68.24;100613.23;1764622;80;21122;-59
2022/08/06 03:45:12;;;;;;;9.83;8.43;;;;;;;21.83;68.29;100613.56;1749589;80;21016;-59
2022/08/06 03:47:42;;;;;;;10.58;8.93;;;;;;;21.85;68.20;100617.69;1743079;80;21064;-59
2022/08/06 03:50:14;;;;;;;10.45;9.30;;;;;;;21.85;68.04;100612.85;1742301;80;21074;-59
2022/08/06 03:52:46;;;;;;;10.60;8.10;;;;;;;21.86;67.98;100618.54;1741470;80;21079;-59
2022/08/06 03:55:17;;;;;;;9.90;8.13;;;;;;;21.85;68.09;100615.53;1753483;80;21149;-60
2022/08/06 03:57:49;;;;;;;12.73;7.47;;;;;;;21.89;68.05;100619.50;1746081;80;21573;-60
2022/08/06 04:00:18;;;;;;;12.20;8.70;;;;;;;21.93;68.02;100614.06;1758119;80;21126;-60
2022/08/06 04:02:50;;;;;;;9.68;8.03;;;;;;;21.94;67.99;100619.75;1756632;80;21682;-59
2022/08/06 04:05:24;;;;;;;11.43;8.53;;;;;;;21.95;67.89;100621.39;1745924;80;21140;-59
2022/08/06 04:07:56;;;;;;;10.23;8.18;;;;;;;21.94;67.99;100625.11;1747600;80;21160;-59
2022/08/06 04:10:42;;;;;;;9.65;7.65;;;;;;;21.94;68.17;100625.11;1741795;80;21141;-59
2022/08/06 04:13:12;;;;;;;;;;;;;;;22.00;68.26;100630.20;1753152;81;21001;-59
2022/08/06 04:15:39;;;;;;;11.48;7.97;;;;;;;22.06;68.05;100632.12;1750077;80;20145;-60
2022/08/06 04:18:13;;;;;;;11.15;7.92;;;;;;;22.10;68.07;100632.05;1750834;81;21110;-61
2022/08/06 04:20:43;;;;;;;10.40;8.15;;;;;;;22.13;68.01;100632.19;1750277;80;21125;-61
2022/08/06 04:23:09;;;;;;;9.80;8.43;;;;;;;22.16;67.90;100633.14;1750968;81;21598;-62
2022/08/06 04:25:40;;;;;;;9.90;8.58;;;;;;;22.18;67.79;100633.77;1740303;80;22554;-61
2022/08/06 04:28:07;;;;;;;9.95;8.88;;;;;;;22.19;67.68;100639.43;1740780;81;21683;-60
2022/08/06 04:30:34;;;;;;;11.95;8.80;;;;;;;22.20;67.53;100638.42;1749030;80;21034;-60
2022/08/06 04:33:02;;;;;;;10.88;8.25;;;;;;;22.22;67.50;100641.21;1758061;80;21854;-60
2022/08/06 04:35:30;;;;;;;10.58;8.38;;;;;;;22.28;67.61;100636.13;1748808;81;21038;-61
2022/08/06 04:37:58;;;;;;;11.33;8.35;;;;;;;22.32;67.09;100636.89;1748341;80;21097;-60
2022/08/06 04:40:25;;;;;;;11.78;9.20;;;;;;;22.30;67.10;100638.95;1746221;81;21106;-60
2022/08/06 04:42:51;;;;;;;10.60;8.25;;;;;;;22.31;67.33;100635.26;1743989;81;21051;-60
2022/08/06 04:45:18;;;;;;;9.25;7.60;;;;;;;22.34;67.12;100636.70;1741810;80;21177;-61
2022/08/06 04:47:44;;;;;;;11.03;8.13;;;;;;;22.30;67.08;100636.27;1747133;80;21063;-60
2022/08/06 04:50:11;;;;;;;12.03;8.33;;;;;;;22.36;67.02;100640.02;1745747;81;21054;-60
2022/08/06 04:52:37;;;;;;;9.48;8.18;;;;;;;22.40;66.93;100635.94;1755383;81;21027;-60
2022/08/06 04:55:06;;;;;;;11.18;8.40;;;;;;;22.44;67.00;100631.34;1748880;81;21019;-60
2022/08/06 04:57:32;;;;;;;10.93;8.55;;;;;;;22.47;67.10;100628.77;1748447;81;21096;-60
2022/08/06 04:59:59;;;;;;;11.55;9.18;;;;;;;22.51;67.25;100634.56;1735674;80;21103;-60
2022/08/06 05:02:26;;;;;;;10.93;8.68;;;;;;;22.54;66.73;100638.20;1735234;82;21083;-60
2022/08/06 05:04:55;;;;;;;11.30;8.75;;;;;;;22.55;66.46;100639.87;1738934;80;21063;-60
2022/08/06 05:07:28;;;;;;;11.10;8.20;;;;;;;22.59;66.17;100647.83;1735506;82;21003;-60
2022/08/06 05:09:56;;;;;;;9.25;8.23;;;;;;;22.61;66.18;100643.94;1730729;80;21238;-60
2022/08/06 05:12:39;;;;;;;12.03;8.70;;;;;;;22.61;66.25;100639.06;1720747;80;20992;-60
2022/08/06 05:15:13;;;;;;;10.68;8.73;;;;;;;22.59;66.17;100639.29;1736445;80;21055;-61
2022/08/06 05:17:44;;;;;;;9.30;8.33;;;;;;;22.55;66.21;100635.84;1733246;81;21071;-60
2022/08/06 05:20:19;;;;;;;10.03;7.50;;;;;;;22.52;66.46;100634.89;1738583;80;21113;-61
2022/08/06 05:22:50;;;;;;;11.27;8.37;;;;;;;22.55;66.77;100633.16;1736780;82;21139;-61
2022/08/06 05:25:17;;;;;;;10.23;8.03;;;;;;;22.60;66.95;100629.38;1736393;80;21566;-61
2022/08/06 05:27:43;;;;;;;10.35;8.23;;;;;;;22.67;67.22;100632.92;1731284;82;21527;-60
2022/08/06 05:30:11;;;;;;;13.32;8.48;;;;;;;22.74;67.21;100632.97;1733830;80;21095;-61
2022/08/06 05:32:44;;;;;;;11.63;8.05;;;;;;;22.76;66.95;100631.77;1741146;82;21260;-59
2022/08/06 05:35:11;;;;;;;9.63;8.50;;;;;;;22.76;67.00;100634.94;1732210;81;21804;-59
2022/08/06 05:37:37;;;;;;;10.38;8.28;;;;;;;22.78;67.26;100637.75;1733754;80;21637;-59
2022/08/06 05:40:06;;;;;;;10.50;7.67;;;;;;;22.83;67.06;100637.17;1725289;80;21102;-59
2022/08/06 05:42:32;;;;;;;8.78;7.87;;;;;;;22.90;66.87;100638.03;1725952;80;21542;-59
2022/08/06 05:44:58;;;;;;;10.23;9.18;;;;;;;22.97;66.82;100640.75;1732017;80;21558;-59
2022/08/06 05:47:28;;;;;;;12.30;8.93;;;;;;;23.06;67.04;100639.57;1734747;80;21174;-59
2022/08/06 05:50:00;;;;;;;11.90;8.85;;;;;;;23.12;66.93;100644.16;1735198;80;21711;-60
2022/08/06 05:52:41;;;;;;;10.10;8.63;;;;;;;23.19;66.72;100639.64;1742824;80;21418;-59
2022/08/06 05:55:33;;;;;;;10.82;9.05;;;;;;;23.26;66.81;100637.50;1748758;80;21077;-58
2022/08/06 05:58:03;;;;;;;9.60;8.13;;;;;;;23.34;66.57;100633.30;1746917;80;21097;-59
2022/08/06 06:00:32;;;;;;;11.93;9.23;;;;;;;23.48;66.54;100639.02;1744076;80;21126;-60
2022/08/06 06:03:01;;;;;;;11.38;8.48;;;;;;;23.60;66.54;100638.44;1745164;80;21058;-59
2022/08/06 06:05:29;;;;;;;12.53;9.80;;;;;;;23.69;66.01;100642.09;1747594;81;21038;-59
2022/08/06 06:07:55;;;;;;;11.03;9.45;;;;;;;23.74;65.68;100644.17;1746356;80;21081;-59
2022/08/06 06:10:24;;;;;;;11.65;9.65;;;;;;;23.77;65.32;100638.89;1750616;80;21161;-59
2022/08/06 06:12:50;;;;;;;10.15;8.93;;;;;;;23.78;65.35;100631.97;1752577;81;21131;-60
2022/08/06 06:15:17;;;;;;;11.28;10.08;;;;;;;23.87;65.31;100634.83;1722363;81;21082;-60
2022/08/06 06:18:12;;;;;;;11.18;9.13;;;;;;;23.99;65.10;100635.55;1749983;80;21118;-60
2022/08/06 06:21:02;;;;;;;12.50;9.73;;;;;;;24.13;65.13;100632.38;1738475;80;21101;-60
2022/08/06 06:23:48;;;;;;;12.73;10.28;;;;;;;24.24;64.42;100632.58;1750408;81;21118;-59
2022/08/06 06:26:45;;;;;;;11.48;9.90;;;;;;;24.27;63.98;100629.45;1748743;80;21074;-59
2022/08/06 06:29:35;;;;;;;11.22;10.03;;;;;;;24.28;63.70;100630.30;1742647;81;21097;-59
2022/08/06 06:32:13;;;;;;;11.28;9.95;;;;;;;24.23;63.96;100634.13;1744911;81;21073;-59
2022/08/06 06:35:15;;;;;;;11.50;9.80;;;;;;;24.21;63.89;100622.73;1746013;80;21097;-59
2022/08/06 06:37:53;;;;;;;12.75;10.28;;;;;;;24.20;63.90;100631.32;1749333;80;21581;-61
2022/08/06 06:40:44;;;;;;;12.33;9.65;;;;;;;24.20;64.12;100628.63;1746111;80;21155;-59
2022/08/06 06:43:48;;;;;;;12.18;10.28;;;;;;;24.25;64.15;100622.11;1746497;80;21014;-59
2022/08/06 06:46:23;;;;;;;13.50;10.32;;;;;;;24.35;63.93;100614.98;1744848;80;21065;-60
2022/08/06 06:48:57;;;;;;;11.57;9.48;;;;;;;24.40;63.57;100611.67;1738258;80;21102;-60
2022/08/06 06:51:33;;;;;;;10.45;9.13;;;;;;;24.42;63.54;100613.10;1734528;80;21605;-60
2022/08/06 06:54:00;;;;;;;10.28;9.18;;;;;;;24.51;63.86;100620.46;1738063;80;22094;-59
2022/08/06 06:56:33;;;;;;;11.48;10.20;;;;;;;24.63;63.77;100624.72;1731594;82;21027;-59
2022/08/06 06:59:04;;;;;;;11.25;9.78;;;;;;;24.72;63.91;100623.44;1737320;81;21078;-59
2022/08/06 07:01:32;;;;;;;11.05;9.60;;;;;;;24.78;63.50;100619.92;1721640;81;21039;-60
2022/08/06 07:04:02;;;;;;;11.65;9.63;;;;;;;24.84;63.34;100621.74;1736386;80;21145;-59
2022/08/06 07:06:29;;;;;;;10.60;9.13;;;;;;;24.90;63.22;100620.59;1735417;80;22052;-59
2022/08/06 07:08:55;;;;;;;11.93;10.35;;;;;;;25.01;63.40;100622.10;1734199;80;21510;-59
2022/08/06 07:11:23;;;;;;;15.38;10.50;;;;;;;25.13;63.20;100620.95;1733611;80;21133;-60
2022/08/06 07:13:50;;;;;;;12.85;10.08;;;;;;;25.16;62.48;100617.80;1738038;82;21078;-59
2022/08/06 07:16:22;;;;;;;13.13;10.68;;;;;;;25.21;62.54;100613.13;1734841;80;21054;-59
2022/08/06 07:18:50;;;;;;;11.65;10.45;;;;;;;25.26;62.51;100605.77;1737023;80;21132;-59
2022/08/06 07:21:18;;;;;;;13.30;9.58;;;;;;;25.31;62.33;100607.33;1732614;80;21062;-59
2022/08/06 07:23:45;;;;;;;12.40;10.60;;;;;;;25.38;62.39;100608.92;1733679;80;21118;-59
2022/08/06 07:26:13;;;;;;;11.25;10.15;;;;;;;25.49;61.82;100597.19;1732049;80;21067;-59
2022/08/06 07:28:39;;;;;;;13.08;10.70;;;;;;;25.48;61.21;100602.26;1735614;80;20995;-46
2022/08/06 07:31:06;;;;;;;11.33;10.08;;;;;;;25.43;61.59;100598.05;1733863;80;21131;-46
2022/08/06 07:33:34;;;;;;;12.93;11.50;;;;;;;25.44;62.19;100598.36;1736334;80;21023;-47
2022/08/06 07:36:00;;;;;;;11.43;10.23;;;;;;;25.48;62.00;100598.22;1733939;80;21075;-46
2022/08/06 07:38:28;;;;;;;12.88;10.13;;;;;;;25.52;61.91;100598.08;1734981;80;21067;-47
2022/08/06 07:41:01;;;;;;;11.12;9.70;;;;;;;25.62;61.85;100598.95;1732981;80;21146;-46
2022/08/06 07:43:48;;;;;;;11.28;10.08;;;;;;;25.72;62.02;100598.80;1731164;82;21232;-47
2022/08/06 07:46:18;;;;;;;11.85;10.60;;;;;;;25.82;61.49;100590.73;1730980;80;21533;-47
2022/08/06 07:48:49;;;;;;;11.22;9.98;;;;;;;25.86;60.97;100596.83;1729205;80;21510;-46
2022/08/06 07:51:15;;;;;;;12.18;10.98;;;;;;;25.93;61.08;100595.43;1735026;80;21007;-47
2022/08/06 07:53:42;;;;;;;11.78;10.58;;;;;;;26.01;60.85;100599.23;1731943;80;21008;-47
2022/08/06 07:56:09;;;;;;;10.55;9.40;;;;;;;26.05;60.67;100601.78;1729621;80;21346;-47
2022/08/06 07:58:36;;;;;;;14.20;9.50;;;;;;;26.11;60.78;100606.84;1735707;82;21113;-49
2022/08/06 08:01:03;;;;;;;11.68;10.38;;;;;;;26.21;60.70;100599.57;1732733;80;21048;-47
2022/08/06 08:06:18;;;;;;;11.87;10.00;;;;;;;26.43;60.57;100594.09;1735060;80;21496;-47
2022/08/06 08:08:45;;;;;;;10.95;9.68;;;;;;;26.51;60.07;100595.66;1734831;81;21688;-46
2022/08/06 08:11:14;;;;;;;11.50;10.30;;;;;;;26.59;60.28;100593.20;1732285;80;21561;-47
2022/08/06 08:13:42;;;;;;;10.48;9.35;;;;;;;26.66;60.11;100593.98;1740372;80;21055;-47
2022/08/06 08:16:11;;;;;;;11.05;8.70;;;;;;;26.69;59.61;100590.83;1731801;80;21059;-47
2022/08/06 08:18:39;;;;;;;10.78;9.53;;;;;;;26.75;58.52;100590.45;1732703;80;21102;-47
2022/08/06 08:21:05;;;;;;;11.40;10.15;;;;;;;26.80;58.13;100593.33;1720905;81;21132;-47
2022/08/06 08:23:32;;;;;;;11.63;10.23;;;;;;;26.80;57.90;100590.63;1735061;80;21425;-47
2022/08/06 08:26:01;;;;;;;11.85;9.55;;;;;;;26.73;57.59;100587.16;1737211;80;21066;-47
2022/08/06 08:28:28;;;;;;;14.05;9.25;;;;;;;26.70;57.91;100589.80;1739137;80;21099;-47
2022/08/06 08:31:01;;;;;;;10.13;9.08;;;;;;;26.70;57.97;100583.05;1732931;80;21098;-50
2022/08/06 08:33:24;;;;;;;10.70;9.28;;;;;;;26.73;57.31;100583.95;1735588;81;21122;-47
2022/08/06 08:35:51;;;;;;;11.60;10.00;;;;;;;26.78;57.02;100580.05;1737194;80;21066;-47
2022/08/06 08:38:18;;;;;;;10.65;9.55;;;;;;;26.81;57.39;100589.02;1735231;81;21055;-47
2022/08/06 08:40:44;;;;;;;12.40;9.80;;;;;;;26.84;57.12;100582.36;1736266;80;21149;-47
2022/08/06 08:43:13;;;;;;;11.38;9.30;;;;;;;26.85;56.93;100582.14;1738370;82;21063;-47
2022/08/06 08:45:39;;;;;;;13.25;9.38;;;;;;;26.86;57.45;100583.80;1734274;80;21854;-46
2022/08/06 08:48:06;;;;;;;13.85;9.23;;;;;;;26.94;56.64;100585.36;1740568;80;21735;-47
2022/08/06 08:50:32;;;;;;;13.03;9.08;;;;;;;27.00;56.85;100583.61;1737304;80;21055;-47
2022/08/06 08:53:09;;;;;;;10.72;9.63;;;;;;;27.10;56.45;100578.53;1732554;80;21565;-47
2022/08/06 08:55:36;;;;;;;10.55;8.63;;;;;;;27.18;56.22;100580.88;1733635;80;21142;-47
2022/08/06 08:58:02;;;;;;;10.93;9.63;;;;;;;27.25;55.58;100584.34;1732896;80;21204;-47
2022/08/06 09:00:29;;;;;;;10.85;8.98;;;;;;;27.31;55.78;100583.97;1735577;80;21111;-47
2022/08/06 09:02:56;;;;;;;10.53;9.23;;;;;;;27.33;55.02;100583.21;1734378;81;21075;-47
2022/08/06 09:05:22;;;;;;;10.25;9.15;;;;;;;27.38;55.04;100586.59;1737007;81;21004;-47
2022/08/06 09:07:50;;;;;;;10.90;9.30;;;;;;;27.44;55.12;100584.33;1736632;80;21054;-47
2022/08/06 09:10:17;;;;;;;11.18;9.55;;;;;;;27.50;55.20;100584.73;1739237;80;21113;-46
2022/08/06 09:12:44;;;;;;;12.98;10.05;;;;;;;27.55;54.93;100584.87;1738894;80;21008;-46
2022/08/06 09:15:10;;;;;;;10.88;9.68;;;;;;;27.59;55.33;100578.50;1734923;82;21070;-47
2022/08/06 09:17:37;;;;;;;12.37;10.05;;;;;;;27.63;55.12;100581.56;1739944;80;21044;-47
2022/08/06 09:20:05;;;;;;;10.63;8.98;;;;;;;27.67;55.17;100580.03;1744328;81;21070;-47
2022/08/06 09:22:32;;;;;;;10.78;8.70;;;;;;;27.68;54.47;100580.34;1736708;82;21717;-47
2022/08/06 09:24:58;;;;;;;11.48;9.58;;;;;;;27.72;54.30;100586.91;1734053;80;21491;-47
2022/08/06 09:27:25;;;;;;;10.75;9.65;;;;;;;27.76;54.63;100584.06;1735952;80;21602;-47
2022/08/06 09:29:57;;;;;;;11.45;9.95;;;;;;;27.79;54.22;100579.01;1716398;82;22302;-47
2022/08/06 09:32:42;;;;;;;10.40;9.10;;;;;;;27.84;53.56;100586.43;1734071;80;21547;-48
2022/08/06 09:35:27;;;;;;;11.18;9.98;;;;;;;27.88;53.62;100582.19;1734180;80;21241;-47
2022/08/06 09:38:05;;;;;;;11.10;9.93;;;;;;;27.94;53.79;100584.52;1733190;82;21106;-47
2022/08/06 09:40:32;;;;;;;11.28;9.65;;;;;;;27.99;53.35;100583.28;1734630;82;20995;-47
2022/08/06 09:42:58;;;;;;;11.33;10.20;;;;;;;28.03;53.13;100576.91;1729781;80;21126;-47
2022/08/06 09:45:25;;;;;;;10.32;9.33;;;;;;;28.07;53.32;100585.64;1730756;80;21043;-47
2022/08/06 09:48:05;;;;;;;12.90;9.28;;;;;;;28.11;53.20;100584.14;1735877;80;21224;-47
2022/08/06 09:50:40;;;;;;;10.70;9.45;;;;;;;28.17;52.88;100586.42;1737299;80;21102;-47
2022/08/06 09:53:07;;;;;;;11.12;9.23;;;;;;;28.21;53.33;100582.20;1733480;80;21054;-47
2022/08/06 09:55:35;;;;;;;11.05;9.40;;;;;;;28.25;52.58;100580.66;1735119;81;21024;-47
2022/08/06 09:58:02;;;;;;;9.85;8.63;;;;;;;28.30;51.93;100583.48;1735298;80;21137;-46
2022/08/06 10:00:32;;;;;;;9.83;8.60;;;;;;;28.37;52.29;100577.14;1733424;82;21120;-47
2022/08/06 10:03:02;;;;;;;9.10;8.15;;;;;;;28.41;51.77;100581.00;1730801;80;21082;-47
2022/08/06 10:05:29;;;;;;;9.70;8.28;;;;;;;28.45;51.39;100578.13;1728759;82;21566;-46
2022/08/06 10:08:14;;;;;;;10.72;7.97;;;;;;;28.53;51.59;100574.53;1732066;80;21071;-47
2022/08/06 10:10:45;;;;;;;9.95;7.90;;;;;;;28.64;52.20;100578.30;1736170;82;21063;-47
2022/08/06 10:13:16;;;;;;;12.35;8.03;;;;;;;28.76;50.83;100578.81;1738074;80;21199;-47
2022/08/06 10:15:45;;;;;;;9.53;8.35;;;;;;;28.82;49.99;100574.62;1734190;80;21486;-47
2022/08/06 10:18:34;;;;;;;9.03;7.92;;;;;;;28.88;50.04;100575.53;1735476;80;21114;-47
2022/08/06 10:21:07;;;;;;;8.40;7.40;;;;;;;28.93;49.60;100572.93;1740248;80;21062;-47
2022/08/06 10:23:38;;;;;;;9.48;8.48;;;;;;;28.98;49.81;100570.86;1733407;82;21558;-47
2022/08/06 10:26:14;;;;;;;10.58;7.53;;;;;;;29.05;50.08;100579.16;1733667;80;22429;-47
2022/08/06 10:28:41;;;;;;;8.95;7.53;;;;;;;29.13;49.76;100575.22;1738123;80;21556;-47
2022/08/06 10:31:11;;;;;;;9.28;8.10;;;;;;;29.21;49.21;100574.86;1735835;81;21126;-47
2022/08/06 10:33:51;;;;;;;9.83;8.05;;;;;;;29.26;49.01;100574.15;1725681;82;21692;-47
2022/08/06 10:36:22;;;;;;;12.45;8.55;;;;;;;29.34;49.23;100568.34;1733159;80;21082;-47
2022/08/06 10:38:50;;;;;;;12.47;7.95;;;;;;;29.39;49.36;100569.78;1730460;80;21122;-47
2022/08/06 10:41:17;;;;;;;9.88;8.75;;;;;;;29.44;48.48;100560.39;1732563;82;21080;-47
2022/08/06 10:43:43;;;;;;;9.28;7.97;;;;;;;29.46;48.34;100555.54;1730749;80;21019;-47
2022/08/06 10:46:19;;;;;;;8.98;7.08;;;;;;;29.51;48.40;100556.71;1739540;80;21660;-47
2022/08/06 10:48:46;;;;;;;8.68;7.42;;;;;;;29.56;47.66;100556.25;1734059;80;21046;-47
2022/08/06 10:51:13;;;;;;;7.85;7.05;;;;;;;29.63;47.47;100558.81;1737608;80;21184;-47
2022/08/06 10:53:44;;;;;;;9.53;7.10;;;;;;;29.70;47.94;100562.72;1737232;82;21102;-47
2022/08/06 10:56:16;;;;;;;9.38;7.28;;;;;;;29.76;47.45;100560.39;1736663;80;21012;-47
2022/08/06 10:58:42;;;;;;;8.78;7.87;;;;;;;29.77;46.59;100547.97;1737196;80;21102;-48
2022/08/06 11:01:18;;;;;;;7.97;7.15;;;;;;;29.78;45.51;100561.80;1735871;80;21023;-47
2022/08/06 11:04:08;;;;;;;7.78;6.95;;;;;;;29.80;45.61;100542.03;1738130;81;21515;-47
2022/08/06 11:07:27;;;;;;;7.87;6.30;;;;;;;29.85;45.93;100545.36;1737683;82;21008;-47
2022/08/06 11:10:08;;;;;;;7.80;7.00;;;;;;;29.97;46.36;100550.16;1734638;81;21065;-47
2022/08/06 11:13:19;;;;;;;8.43;7.12;;;;;;;30.07;45.60;100548.14;1736418;80;21063;-48
2022/08/06 11:15:45;;;;;;;10.25;7.53;;;;;;;30.11;44.99;100549.30;1738568;82;21003;-47
2022/08/06 11:18:12;;;;;;;9.25;7.37;;;;;;;30.10;44.05;100544.93;1736798;80;21106;-48
2022/08/06 11:20:47;;;;;;;11.48;7.72;;;;;;;30.01;45.03;100546.44;1736688;80;21130;-48
2022/08/06 11:23:19;;;;;;;9.00;7.40;;;;;;;29.97;45.11;100547.98;1737661;82;21135;-48
2022/08/06 11:25:55;;;;;;;10.05;7.35;;;;;;;30.00;45.00;100544.23;1737483;80;21000;-47
2022/08/06 11:28:33;;;;;;;8.33;7.53;;;;;;;30.08;45.19;100546.27;1736976;80;21588;-52
2022/08/06 11:31:03;;;;;;;7.45;6.35;;;;;;;30.11;45.05;100538.45;1733190;82;21122;-47
2022/08/06 11:33:38;;;;;;;9.33;6.53;;;;;;;30.15;44.50;100542.28;1733928;82;21070;-47
2022/08/06 11:36:15;;;;;;;8.60;6.72;;;;;;;30.19;44.64;100539.38;1732269;80;21075;-47
2022/08/06 11:38:56;;;;;;;7.65;6.85;;;;;;;30.29;45.22;100540.03;1734577;82;21106;-48
2022/08/06 11:41:27;;;;;;;8.70;6.37;;;;;;;30.42;44.20;100539.44;1735420;82;21086;-46
2022/08/06 11:43:59;;;;;;;7.55;6.00;;;;;;;30.53;43.34;100539.31;1735250;80;21222;-47